Time;durP1;ratioP1;P1;durP2;ratioP2;P2;SDS_P1;SDS_P2;PMS_P1;PMS_P2;Temp;Humidity;BMP_temperature;BMP_pressure;BME280_temperature;BME280_humidity;BME280_pressure;Samples;Min_cycle;Max_cycle;Signal;HPM_P1;HPM_P2
2022/06/10 00:00:17;;;;;;;6.13;0.82;;;13.50;99.90;;;;;;5037399;28;20041;-43
2022/06/10 00:02:43;;;;;;;4.65;0.52;;;13.50;99.90;;;;;;5038963;28;20403;-44
2022/06/10 00:05:22;;;;;;;6.03;0.80;;;13.50;99.90;;;;;;5037545;28;20503;-44
2022/06/10 00:07:49;;;;;;;5.63;0.85;;;13.50;99.90;;;;;;5031276;28;20044;-42
2022/06/10 00:10:16;;;;;;;4.57;0.60;;;13.40;99.90;;;;;;5036523;28;20105;-44
2022/06/10 00:12:42;;;;;;;6.60;0.80;;;13.40;99.90;;;;;;5039694;28;20041;-42
2022/06/10 00:15:09;;;;;;;6.07;0.70;;;13.40;99.90;;;;;;5038254;28;20372;-41
2022/06/10 00:17:35;;;;;;;6.47;0.60;;;13.40;99.90;;;;;;5041813;28;20462;-41
2022/06/10 00:20:03;;;;;;;7.90;0.80;;;13.40;99.90;;;;;;5039831;28;20034;-44
2022/06/10 00:22:29;;;;;;;8.48;0.88;;;13.40;99.90;;;;;;5036346;28;20051;-41
2022/06/10 00:24:55;;;;;;;6.50;0.75;;;13.30;99.90;;;;;;5041640;28;20032;-43
2022/06/10 00:27:20;;;;;;;4.75;0.57;;;13.30;99.90;;;;;;5021046;28;20052;-42
2022/06/10 00:29:47;;;;;;;4.00;0.50;;;13.30;99.90;;;;;;5021007;28;20136;-42
2022/06/10 00:32:14;;;;;;;6.38;0.60;;;13.30;99.90;;;;;;5041253;28;20082;-42
2022/06/10 00:34:40;;;;;;;6.70;0.70;;;13.30;99.90;;;;;;5040260;28;20522;-42
2022/06/10 00:37:07;;;;;;;5.90;0.93;;;13.30;99.90;;;;;;5033079;28;20191;-43
2022/06/10 00:39:34;;;;;;;4.50;0.60;;;13.30;99.90;;;;;;5037068;28;20042;-42
2022/06/10 00:42:01;;;;;;;5.13;0.55;;;13.20;99.90;;;;;;5019567;28;20044;-44
2022/06/10 00:44:36;;;;;;;6.80;0.85;;;13.20;99.90;;;;;;5039658;28;20037;-43
2022/06/10 00:47:11;;;;;;;4.60;0.75;;;13.20;99.90;;;;;;5037588;28;20120;-42
2022/06/10 00:49:38;;;;;;;5.72;0.60;;;13.20;99.90;;;;;;5032981;28;20048;-41
2022/06/10 00:52:04;;;;;;;5.65;0.80;;;13.20;99.90;;;;;;5037583;28;20047;-43
2022/06/10 00:54:33;;;;;;;5.28;0.75;;;13.10;99.90;;;;;;5023885;28;20068;-42
2022/06/10 00:57:09;;;;;;;5.63;0.60;;;13.20;99.90;;;;;;5038586;28;20183;-42
2022/06/10 00:59:41;;;;;;;4.32;0.60;;;13.10;99.90;;;;;;5034827;28;20502;-43
2022/06/10 01:02:14;;;;;;;5.50;0.70;;;13.10;99.90;;;;;;5037232;28;20395;-42
2022/06/10 01:04:40;;;;;;;5.53;0.90;;;13.10;99.90;;;;;;5035522;28;20030;-42
2022/06/10 01:07:07;;;;;;;3.60;0.60;;;13.10;99.90;;;;;;5040526;28;20049;-44
2022/06/10 01:09:34;;;;;;;3.47;0.57;;;13.10;99.90;;;;;;5040436;28;20182;-42
2022/06/10 01:12:15;;;;;;;3.35;0.40;;;13.10;99.90;;;;;;5033225;28;20068;-45
2022/06/10 01:14:59;;;;;;;5.68;0.60;;;13.00;99.90;;;;;;5033225;28;20293;-42
2022/06/10 01:17:43;;;;;;;5.10;0.60;;;13.00;99.90;;;;;;5036919;28;20077;-42
2022/06/10 01:20:25;;;;;;;6.05;0.82;;;13.00;99.90;;;;;;5036400;28;20076;-44
2022/06/10 01:23:16;;;;;;;4.35;0.70;;;13.00;99.90;;;;;;5020635;28;20059;-42
2022/06/10 01:26:15;;;;;;;4.90;0.55;;;13.00;99.90;;;;;;5037726;28;20064;-43
2022/06/10 01:29:03;;;;;;;4.38;0.52;;;12.90;99.90;;;;;;5037857;28;20049;-42
2022/06/10 01:31:46;;;;;;;6.90;0.80;;;12.90;99.90;;;;;;5034472;28;20387;-43
2022/06/10 01:34:26;;;;;;;6.82;0.60;;;12.90;99.90;;;;;;5036688;28;20514;-42
2022/06/10 01:37:00;;;;;;;5.47;0.70;;;12.90;99.90;;;;;;5016315;28;20067;-42
2022/06/10 01:39:35;;;;;;;5.90;0.57;;;12.90;99.90;;;;;;5036837;28;20080;-42
2022/06/10 01:42:25;;;;;;;3.65;0.50;;;12.90;99.90;;;;;;5037109;28;20067;-44
2022/06/10 01:45:07;;;;;;;3.97;0.60;;;12.80;99.90;;;;;;5036536;28;20174;-42
2022/06/10 01:47:49;;;;;;;7.65;0.77;;;12.80;99.90;;;;;;5036566;28;20080;-43
2022/06/10 01:50:22;;;;;;;5.97;0.77;;;12.80;99.90;;;;;;5040007;28;20086;-44
2022/06/10 01:53:05;;;;;;;5.07;0.68;;;12.80;99.90;;;;;;5036673;28;20040;-42
2022/06/10 01:55:47;;;;;;;5.40;0.90;;;12.80;99.90;;;;;;5034658;28;20064;-43
2022/06/10 01:58:23;;;;;;;5.40;0.70;;;12.80;99.90;;;;;;5012729;28;20089;-41
2022/06/10 02:00:53;;;;;;;3.13;0.60;;;12.80;99.90;;;;;;5034820;28;20475;-44
2022/06/10 02:03:28;;;;;;;4.65;0.63;;;12.70;99.90;;;;;;5033508;28;20507;-44
2022/06/10 02:06:03;;;;;;;4.88;0.93;;;12.70;99.90;;;;;;5036977;28;20051;-42
2022/06/10 02:08:41;;;;;;;7.25;0.75;;;12.70;99.90;;;;;;5030401;28;20041;-43
2022/06/10 02:11:14;;;;;;;7.25;0.98;;;12.70;99.90;;;;;;5036108;28;20556;-42
2022/06/10 02:13:55;;;;;;;4.10;0.68;;;12.70;99.90;;;;;;5033690;28;20045;-42
2022/06/10 02:16:27;;;;;;;4.13;0.60;;;12.70;99.90;;;;;;5016126;28;20056;-43
2022/06/10 02:19:02;;;;;;;4.93;0.82;;;12.60;99.90;;;;;;5036426;28;20391;-42
2022/06/10 02:21:35;;;;;;;4.90;0.75;;;12.60;99.90;;;;;;5037462;28;20037;-42
2022/06/10 02:24:25;;;;;;;6.53;0.60;;;12.60;99.90;;;;;;5038305;28;20473;-44
2022/06/10 02:26:55;;;;;;;6.68;0.60;;;12.60;99.90;;;;;;5041566;28;20392;-42
2022/06/10 02:29:29;;;;;;;4.63;0.82;;;12.60;99.90;;;;;;5037886;28;20560;-41
2022/06/10 02:31:58;;;;;;;7.45;1.25;;;12.60;99.90;;;;;;5039668;28;20048;-42
2022/06/10 02:34:26;;;;;;;4.10;0.68;;;12.60;99.90;;;;;;5038250;28;20091;-42
2022/06/10 02:36:58;;;;;;;6.35;1.00;;;12.60;99.90;;;;;;5039246;28;20136;-42
2022/06/10 02:39:37;;;;;;;6.22;0.80;;;12.60;99.90;;;;;;5038460;28;20033;-41
2022/06/10 02:42:06;;;;;;;7.85;0.70;;;12.60;99.90;;;;;;5037691;28;20041;-42
2022/06/10 02:44:53;;;;;;;5.30;0.73;;;12.50;99.90;;;;;;5038985;28;20091;-42
2022/06/10 02:47:47;;;;;;;4.40;0.50;;;12.50;99.90;;;;;;5039616;28;20506;-42
2022/06/10 02:50:15;;;;;;;6.05;0.55;;;12.50;99.90;;;;;;5037860;28;20615;-43
2022/06/10 02:52:42;;;;;;;8.45;1.15;;;12.50;99.90;;;;;;5035617;28;20040;-42
2022/06/10 02:55:17;;;;;;;5.53;0.60;;;12.50;99.90;;;;;;5042299;28;20044;-42
2022/06/10 03:03:33;;;;;;;6.65;0.90;;;12.40;99.90;;;;;;5040562;28;20053;-43
2022/06/10 03:06:25;;;;;;;6.72;1.20;;;12.40;99.90;;;;;;5040534;28;20033;-43
2022/06/10 03:09:06;;;;;;;4.50;0.70;;;12.40;99.90;;;;;;5018432;28;20116;-42
2022/06/10 03:11:58;;;;;;;6.65;0.95;;;12.40;99.90;;;;;;5039608;28;20056;-43
2022/06/10 03:14:43;;;;;;;6.40;1.00;;;12.40;99.90;;;;;;5036223;28;20450;-43
2022/06/10 03:17:41;;;;;;;4.47;0.60;;;12.30;99.90;;;;;;5038311;28;20143;-45
2022/06/10 03:20:21;;;;;;;4.78;0.80;;;12.30;99.90;;;;;;5037898;28;20049;-42
2022/06/10 03:23:14;;;;;;;5.72;0.90;;;12.30;99.90;;;;;;5022961;28;20049;-42
2022/06/10 03:25:45;;;;;;;4.67;0.60;;;12.30;99.90;;;;;;5034298;28;20345;-41
2022/06/10 03:28:35;;;;;;;3.83;0.60;;;12.20;99.90;;;;;;5035665;28;20437;-42
2022/06/10 03:31:09;;;;;;;4.85;0.50;;;12.30;99.90;;;;;;5030642;28;20045;-42
2022/06/10 03:33:43;;;;;;;7.22;0.90;;;12.30;99.90;;;;;;5046140;28;20696;-43
2022/06/10 03:36:16;;;;;;;6.47;0.90;;;12.30;99.90;;;;;;5045067;28;20091;-43
2022/06/10 03:38:45;;;;;;;7.63;1.20;;;12.30;99.90;;;;;;5026114;28;20077;-41
2022/06/10 03:41:24;;;;;;;5.72;0.93;;;12.30;99.90;;;;;;5034999;28;20095;-42
2022/06/10 03:43:52;;;;;;;5.75;0.47;;;12.30;99.90;;;;;;5033302;28;20033;-42
2022/06/10 03:46:22;;;;;;;5.88;0.80;;;12.20;99.90;;;;;;5038008;28;20107;-43
2022/06/10 03:48:50;;;;;;;6.10;1.05;;;12.20;99.90;;;;;;5046709;28;20068;-42
2022/06/10 03:51:18;;;;;;;4.28;1.05;;;12.20;99.90;;;;;;5045291;28;20036;-44
2022/06/10 03:53:44;;;;;;;8.30;1.08;;;12.20;99.90;;;;;;5042682;28;20431;-43
2022/06/10 03:56:11;;;;;;;6.97;0.93;;;12.20;99.90;;;;;;5038029;28;20075;-44
2022/06/10 03:58:38;;;;;;;6.93;0.80;;;12.20;99.90;;;;;;5015948;28;20045;-43
2022/06/10 04:01:04;;;;;;;7.60;0.80;;;12.30;99.90;;;;;;5033954;28;20053;-43
2022/06/10 04:03:29;;;;;;;7.13;0.95;;;12.30;99.90;;;;;;5045547;28;20037;-43
2022/06/10 04:05:55;;;;;;;6.25;0.70;;;12.30;99.90;;;;;;5037975;28;20037;-44
2022/06/10 04:08:22;;;;;;;5.35;0.93;;;12.30;99.90;;;;;;5036354;28;20049;-42
2022/06/10 04:10:47;;;;;;;10.35;1.02;;;12.30;99.90;;;;;;5047418;28;20048;-43
2022/06/10 04:13:17;;;;;;;8.85;1.30;;;12.20;99.90;;;;;;5034040;28;20396;-43
2022/06/10 04:15:44;;;;;;;6.70;1.10;;;12.30;99.90;;;;;;5032018;28;20053;-43
2022/06/10 04:18:10;;;;;;;7.35;1.05;;;12.30;99.90;;;;;;5039602;28;20056;-43
2022/06/10 04:20:38;;;;;;;5.35;0.80;;;12.30;99.90;;;;;;5044621;28;20446;-43
2022/06/10 04:23:05;;;;;;;4.82;0.88;;;12.30;99.90;;;;;;5045889;28;20076;-45
2022/06/10 04:25:33;;;;;;;6.35;0.70;;;12.30;99.90;;;;;;5032039;28;20045;-45
2022/06/10 04:27:59;;;;;;;6.18;1.00;;;12.30;99.90;;;;;;5031597;28;20045;-43
2022/06/10 04:30:38;;;;;;;5.82;0.80;;;12.30;99.90;;;;;;5032047;28;20041;-43
2022/06/10 04:33:05;;;;;;;5.65;0.70;;;12.40;99.90;;;;;;5033433;28;20055;-45
2022/06/10 04:35:32;;;;;;;6.88;0.70;;;12.40;99.90;;;;;;5045440;28;20507;-43
2022/06/10 04:37:58;;;;;;;7.65;0.80;;;12.40;99.90;;;;;;5035653;28;20415;-42
2022/06/10 04:40:27;;;;;;;6.28;0.90;;;12.40;99.90;;;;;;5044967;28;20168;-43
2022/06/10 04:42:53;;;;;;;7.13;1.10;;;12.50;99.90;;;;;;5045537;28;20446;-42
2022/06/10 04:45:22;;;;;;;5.72;0.68;;;12.50;99.90;;;;;;5044155;28;20045;-42
2022/06/10 04:47:48;;;;;;;5.47;0.82;;;12.60;99.90;;;;;;5047056;28;20097;-42
2022/06/10 04:50:18;;;;;;;6.75;0.73;;;12.60;99.90;;;;;;5036818;28;20086;-46
2022/06/10 04:52:44;;;;;;;8.30;0.93;;;12.60;99.90;;;;;;5032373;28;20081;-45
2022/06/10 04:55:10;;;;;;;6.65;1.13;;;12.60;99.90;;;;;;5032950;28;20672;-45
2022/06/10 04:57:37;;;;;;;5.20;0.63;;;12.70;99.90;;;;;;5032461;28;20080;-46
2022/06/10 05:00:06;;;;;;;8.50;1.00;;;12.70;99.90;;;;;;5019814;28;20037;-43
2022/06/10 05:02:34;;;;;;;5.78;0.85;;;12.70;99.90;;;;;;5045134;28;20410;-43
2022/06/10 05:05:00;;;;;;;6.93;0.98;;;12.80;99.90;;;;;;5046597;28;20106;-44
2022/06/10 05:07:26;;;;;;;7.30;1.02;;;12.80;99.90;;;;;;5035412;28;20131;-42
2022/06/10 05:09:52;;;;;;;9.60;1.00;;;12.80;99.90;;;;;;5036092;28;20074;-47
2022/06/10 05:12:18;;;;;;;8.07;1.02;;;12.80;99.90;;;;;;5044305;28;20041;-44
2022/06/10 05:14:43;;;;;;;6.05;1.00;;;12.90;99.90;;;;;;5044752;28;20566;-43
2022/06/10 05:17:09;;;;;;;8.25;0.82;;;13.00;99.90;;;;;;5038576;28;20400;-42
2022/06/10 05:19:35;;;;;;;8.60;1.05;;;13.20;99.90;;;;;;5032901;28;20037;-44
2022/06/10 05:22:00;;;;;;;8.45;1.00;;;14.00;99.90;;;;;;5037215;28;20483;-44
2022/06/10 05:24:26;;;;;;;8.35;0.90;;;15.20;99.90;;;;;;5032733;28;20068;-42
2022/06/10 05:26:52;;;;;;;6.18;0.80;;;16.50;99.90;;;;;;5037567;28;20511;-42
2022/06/10 05:29:17;;;;;;;6.47;0.82;;;17.20;99.90;;;;;;5037003;28;20125;-42
2022/06/10 05:31:43;;;;;;;5.38;0.65;;;17.10;99.90;;;;;;5035940;28;20463;-42
2022/06/10 05:36:53;;;;;;;6.18;0.90;;;16.70;99.90;;;;;;5044822;28;20123;-43
2022/06/10 05:39:19;;;;;;;7.25;0.85;;;16.60;99.90;;;;;;5052329;28;20487;-44
2022/06/10 05:44:29;;;;;;;5.15;0.65;;;16.50;99.90;;;;;;5033576;28;20044;-46
2022/06/10 05:46:55;;;;;;;7.07;1.02;;;16.50;99.90;;;;;;5036410;28;20053;-48
2022/06/10 05:49:22;;;;;;;6.60;0.80;;;16.40;99.90;;;;;;5031353;28;20052;-46
2022/06/10 05:51:48;;;;;;;8.60;1.10;;;16.40;99.90;;;;;;5036682;28;20045;-47
2022/06/10 05:54:14;;;;;;;9.85;1.15;;;16.30;99.90;;;;;;5037557;28;20454;-47
2022/06/10 05:56:40;;;;;;;6.10;0.82;;;16.30;99.90;;;;;;5033286;28;20131;-45
2022/06/10 05:59:07;;;;;;;6.82;0.90;;;16.20;99.90;;;;;;5031964;28;20128;-44
2022/06/10 06:01:33;;;;;;;5.63;0.85;;;16.20;99.90;;;;;;5031260;28;20064;-49
2022/06/10 06:03:58;;;;;;;6.22;0.93;;;16.20;99.90;;;;;;5043519;28;20487;-46
2022/06/10 06:06:24;;;;;;;7.03;0.80;;;16.10;99.90;;;;;;5042651;28;20043;-46
2022/06/10 06:08:50;;;;;;;8.82;1.05;;;16.10;99.90;;;;;;5044526;28;20037;-47
2022/06/10 06:11:17;;;;;;;8.07;1.02;;;16.10;99.90;;;;;;5038843;28;20040;-47
2022/06/10 06:13:43;;;;;;;7.43;0.70;;;16.10;99.90;;;;;;5042276;28;20041;-45
2022/06/10 06:16:14;;;;;;;8.38;1.15;;;16.10;99.90;;;;;;5031740;28;20033;-47
2022/06/10 06:18:41;;;;;;;8.27;1.15;;;16.10;99.90;;;;;;5014238;28;20111;-44
2022/06/10 06:21:07;;;;;;;7.90;0.95;;;16.20;99.90;;;;;;5030201;28;20043;-48
2022/06/10 06:23:32;;;;;;;8.15;0.90;;;16.20;99.90;;;;;;5016160;28;20410;-46
2022/06/10 06:25:58;;;;;;;8.23;1.00;;;16.20;99.90;;;;;;5017913;28;20037;-46
2022/06/10 06:28:24;;;;;;;8.73;1.33;;;16.20;99.90;;;;;;5028621;28;20522;-46
2022/06/10 06:30:50;;;;;;;8.27;1.00;;;16.20;99.90;;;;;;5044279;28;20394;-49
2022/06/10 06:33:16;;;;;;;12.20;1.10;;;16.20;99.90;;;;;;5038717;28;20316;-49
2022/06/10 06:35:47;;;;;;;11.13;1.30;;;16.30;99.90;;;;;;5045869;28;20117;-45
2022/06/10 06:38:14;;;;;;;12.10;1.20;;;16.30;99.90;;;;;;5039920;28;20057;-49
2022/06/10 06:40:42;;;;;;;9.13;1.25;;;16.30;99.90;;;;;;5034761;28;20112;-45
2022/06/10 06:43:10;;;;;;;8.38;1.33;;;16.40;99.90;;;;;;5037419;28;20063;-46
2022/06/10 06:45:37;;;;;;;7.90;0.95;;;16.40;99.90;;;;;;5035737;28;20033;-46
2022/06/10 06:48:07;;;;;;;9.32;0.93;;;16.40;99.90;;;;;;5024979;28;20399;-45
2022/06/10 06:50:34;;;;;;;12.73;1.33;;;16.50;99.90;;;;;;5020314;28;20044;-46
2022/06/10 06:53:00;;;;;;;15.18;1.60;;;16.60;99.90;;;;;;5035054;28;20052;-46
2022/06/10 06:55:26;;;;;;;14.98;1.92;;;16.60;99.90;;;;;;5039224;28;20112;-47
2022/06/10 06:57:52;;;;;;;16.17;2.45;;;16.70;99.90;;;;;;5041833;28;20098;-46
2022/06/10 07:00:18;;;;;;;12.50;1.67;;;16.70;99.90;;;;;;5019137;28;20041;-50
2022/06/10 07:02:44;;;;;;;11.73;1.45;;;16.80;99.90;;;;;;5033681;28;20116;-49
2022/06/10 07:05:12;;;;;;;12.82;1.77;;;16.90;99.90;;;;;;5040775;28;20124;-47
2022/06/10 07:07:39;;;;;;;16.65;2.22;;;16.90;99.90;;;;;;5031316;28;20080;-49
2022/06/10 07:10:05;;;;;;;9.95;1.20;;;17.00;99.90;;;;;;5049005;28;20518;-46
2022/06/10 07:12:31;;;;;;;11.57;1.60;;;17.00;99.90;;;;;;5032155;28;20040;-48
2022/06/10 07:14:56;;;;;;;7.75;1.15;;;17.10;99.90;;;;;;5050794;28;20059;-46
2022/06/10 07:17:22;;;;;;;9.68;1.38;;;17.20;99.90;;;;;;5051221;28;20100;-47
2022/06/10 07:19:50;;;;;;;10.23;1.48;;;17.20;99.90;;;;;;5050811;28;20044;-46
2022/06/10 07:22:16;;;;;;;8.13;1.30;;;17.30;99.90;;;;;;5034707;28;20345;-46
2022/06/10 07:24:42;;;;;;;10.38;1.02;;;17.50;99.90;;;;;;5050918;28;20040;-43
2022/06/10 07:27:09;;;;;;;12.70;1.33;;;17.50;99.90;;;;;;5050815;28;20750;-44
2022/06/10 07:29:35;;;;;;;14.05;1.63;;;17.70;99.90;;;;;;5051978;28;20093;-44
2022/06/10 07:32:00;;;;;;;18.67;2.00;;;17.70;99.90;;;;;;5050720;28;20121;-42
2022/06/10 07:34:26;;;;;;;14.50;1.42;;;17.80;99.90;;;;;;5050824;28;20044;-42
2022/06/10 07:36:52;;;;;;;14.48;2.65;;;17.80;99.90;;;;;;5016934;28;20443;-42
2022/06/10 07:39:18;;;;;;;14.93;1.83;;;17.80;99.90;;;;;;5050537;28;20053;-44
2022/06/10 07:42:00;;;;;;;13.85;2.38;;;17.80;99.90;;;;;;5033747;28;20045;-43
2022/06/10 07:44:35;;;;;;;15.10;2.17;;;17.90;99.90;;;;;;5051420;28;20080;-45
2022/06/10 07:47:10;;;;;;;15.27;2.10;;;17.90;99.90;;;;;;5051507;28;20044;-44
2022/06/10 07:49:36;;;;;;;11.18;1.45;;;18.00;99.90;;;;;;5052024;28;20048;-47
2022/06/10 07:52:03;;;;;;;12.65;1.65;;;18.00;99.90;;;;;;5051529;28;20055;-46
2022/06/10 07:54:30;;;;;;;10.43;1.50;;;18.10;99.90;;;;;;5051545;28;20426;-46
2022/06/10 07:56:56;;;;;;;10.10;1.92;;;18.20;99.90;;;;;;5049666;28;20088;-44
2022/06/10 07:59:21;;;;;;;8.32;1.42;;;18.30;99.90;;;;;;5051458;28;20077;-46
2022/06/10 08:01:47;;;;;;;7.55;1.52;;;18.30;99.90;;;;;;5050176;28;20040;-44
2022/06/10 08:04:14;;;;;;;10.77;1.38;;;18.40;99.90;;;;;;5051551;28;20462;-46
2022/06/10 08:06:43;;;;;;;8.25;1.42;;;18.40;99.90;;;;;;5051118;28;20052;-45
2022/06/10 08:09:09;;;;;;;12.70;1.80;;;18.50;99.90;;;;;;5051186;28;20074;-46
2022/06/10 08:11:37;;;;;;;7.18;1.48;;;18.60;99.90;;;;;;5049698;28;20048;-45
2022/06/10 08:14:03;;;;;;;13.85;1.77;;;18.70;99.90;;;;;;5049840;28;20127;-46
2022/06/10 08:16:30;;;;;;;19.80;2.95;;;18.70;99.90;;;;;;5049651;28;20037;-44
2022/06/10 08:18:55;;;;;;;20.65;2.83;;;18.80;99.90;;;;;;5049531;28;20550;-45
2022/06/10 08:24:06;;;;;;;12.07;2.63;;;18.80;99.90;;;;;;5049653;28;20037;-43
2022/06/10 08:26:33;;;;;;;14.95;2.67;;;18.90;99.90;;;;;;5049685;28;20079;-45
2022/06/10 08:29:00;;;;;;;11.88;2.28;;;18.90;99.90;;;;;;5049382;28;20049;-45
2022/06/10 08:31:26;;;;;;;17.00;2.63;;;18.90;99.90;;;;;;5049390;28;20090;-47
2022/06/10 08:33:52;;;;;;;13.68;2.10;;;19.00;99.90;;;;;;5049439;28;20395;-45
2022/06/10 08:36:18;;;;;;;12.55;2.25;;;19.00;99.90;;;;;;5048193;28;20528;-45
2022/06/10 08:38:44;;;;;;;10.73;1.90;;;19.10;99.90;;;;;;5050093;28;20076;-48
2022/06/10 08:41:27;;;;;;;12.15;2.17;;;19.20;99.90;;;;;;5049461;28;20086;-48
2022/06/10 08:43:52;;;;;;;;;;;19.30;99.90;;;;;;5033134;28;20589;-45
2022/06/10 08:46:27;;;;;;;10.10;2.33;;;19.30;99.90;;;;;;5042720;28;19920;-44
2022/06/10 08:49:07;;;;;;;7.80;1.52;;;19.40;99.90;;;;;;5047058;28;20040;-43
2022/06/10 08:52:05;;;;;;;14.88;2.05;;;19.50;99.90;;;;;;5032234;28;20132;-45
2022/06/10 08:54:45;;;;;;;10.60;1.95;;;19.50;99.90;;;;;;5050441;28;20040;-46
2022/06/10 08:57:34;;;;;;;13.55;2.30;;;19.50;99.90;;;;;;5048702;28;20059;-46
2022/06/10 09:00:01;;;;;;;15.50;2.47;;;19.50;99.90;;;;;;5049041;28;20040;-46
2022/06/10 09:02:37;;;;;;;14.57;2.00;;;19.50;99.90;;;;;;5050362;28;20037;-44
2022/06/10 09:05:28;;;;;;;8.98;1.88;;;19.50;99.90;;;;;;5048845;28;20041;-43
2022/06/10 09:07:59;;;;;;;19.02;1.98;;;19.60;99.90;;;;;;5050355;28;20047;-43
2022/06/10 09:10:46;;;;;;;13.80;2.22;;;19.50;99.90;;;;;;5050173;28;20394;-44
2022/06/10 09:13:21;;;;;;;12.80;2.60;;;19.60;99.90;;;;;;5049690;28;20045;-44
2022/06/10 09:16:02;;;;;;;14.20;2.00;;;19.70;99.90;;;;;;5049934;28;20124;-43
2022/06/10 09:18:59;;;;;;;9.98;2.17;;;19.70;99.90;;;;;;5048605;28;20103;-43
2022/06/10 09:21:42;;;;;;;9.07;2.28;;;19.70;99.90;;;;;;5049945;28;20037;-45
2022/06/10 09:24:25;;;;;;;9.52;2.00;;;19.70;99.90;;;;;;5049748;28;20499;-45
2022/06/10 09:27:11;;;;;;;;;;;19.80;99.90;;;;;;5032541;28;20052;-47
2022/06/10 09:29:38;;;;;;;14.18;3.30;;;19.70;99.90;;;;;;5048936;28;19924;-43
2022/06/10 09:32:27;;;;;;;18.08;6.00;;;19.70;99.90;;;;;;5048564;28;20572;-46
2022/06/10 09:35:12;;;;;;;23.55;5.78;;;19.70;99.90;;;;;;5049051;28;20418;-44
2022/06/10 09:37:56;;;;;;;19.45;5.22;;;19.80;99.90;;;;;;5048036;28;20179;-43
2022/06/10 09:40:39;;;;;;;18.48;5.20;;;19.80;99.90;;;;;;5049930;28;20052;-43
2022/06/10 09:43:10;;;;;;;19.52;5.28;;;19.80;99.90;;;;;;5049432;28;20033;-43
2022/06/10 09:45:45;;;;;;;23.20;5.47;;;19.80;99.90;;;;;;5048546;28;20029;-47
2022/06/10 09:48:32;;;;;;;18.45;5.30;;;19.80;99.90;;;;;;5048133;28;20060;-44
2022/06/10 09:51:15;;;;;;;16.90;4.65;;;19.80;99.90;;;;;;5064926;28;20053;-47
2022/06/10 09:53:46;;;;;;;15.05;4.30;;;19.80;99.90;;;;;;5048119;28;20049;-45
2022/06/10 09:56:31;;;;;;;15.63;4.13;;;19.70;99.90;;;;;;5049789;28;20045;-45
2022/06/10 09:59:33;;;;;;;13.32;3.53;;;19.70;99.90;;;;;;5049324;28;20103;-46
2022/06/10 10:02:31;;;;;;;13.75;3.83;;;19.80;99.90;;;;;;5048132;28;20494;-44
2022/06/10 10:05:06;;;;;;;14.07;4.60;;;19.90;99.90;;;;;;5050048;28;20057;-44
2022/06/10 10:07:50;;;;;;;12.10;3.88;;;19.90;99.90;;;;;;5048246;28;20041;-47
2022/06/10 10:10:46;;;;;;;12.43;3.47;;;19.90;99.90;;;;;;5049672;28;20037;-47
2022/06/10 10:13:27;;;;;;;11.52;4.50;;;19.80;99.90;;;;;;5049131;28;20045;-42
2022/06/10 10:16:13;;;;;;;10.82;3.20;;;19.80;99.90;;;;;;5049334;28;20037;-45
2022/06/10 10:19:00;;;;;;;11.93;3.47;;;19.80;99.90;;;;;;5049229;28;20056;-43
2022/06/10 10:21:52;;;;;;;12.02;3.15;;;19.80;99.90;;;;;;5049363;28;20037;-43
2022/06/10 10:24:22;;;;;;;10.32;3.50;;;19.80;99.90;;;;;;5048971;28;20041;-47
2022/06/10 10:26:50;;;;;;;11.32;3.42;;;19.80;99.90;;;;;;5030928;28;20102;-45
2022/06/10 10:29:20;;;;;;;11.80;3.25;;;19.90;99.90;;;;;;5049193;28;20106;-43
2022/06/10 10:31:48;;;;;;;8.48;2.80;;;19.90;99.90;;;;;;5049207;28;20048;-46
2022/06/10 10:34:26;;;;;;;7.47;2.50;;;19.90;99.90;;;;;;5047769;28;20052;-44
2022/06/10 10:36:55;;;;;;;10.00;2.90;;;20.00;99.90;;;;;;5048921;28;20045;-51
2022/06/10 10:39:27;;;;;;;8.05;2.55;;;20.00;99.90;;;;;;5049166;28;20045;-47
2022/06/10 10:41:55;;;;;;;5.85;2.20;;;20.10;99.90;;;;;;5049246;28;20043;-47
2022/06/10 10:44:28;;;;;;;6.55;1.98;;;20.10;99.90;;;;;;5049064;28;20436;-45
2022/06/10 10:47:13;;;;;;;7.60;2.00;;;20.20;99.90;;;;;;5051028;28;20471;-47
2022/06/10 10:49:51;;;;;;;8.25;2.35;;;20.20;99.90;;;;;;5052901;28;20053;-46
2022/06/10 10:52:25;;;;;;;8.82;2.38;;;20.20;99.90;;;;;;5053033;28;20135;-47
2022/06/10 10:54:55;;;;;;;10.60;2.00;;;20.20;99.90;;;;;;5052463;28;20133;-47
2022/06/10 10:57:32;;;;;;;6.72;1.73;;;20.20;99.90;;;;;;5051331;28;20041;-46
2022/06/10 11:00:24;;;;;;;9.95;1.77;;;20.20;99.90;;;;;;5051326;28;20043;-48
2022/06/10 11:02:55;;;;;;;9.10;1.92;;;20.30;99.90;;;;;;5052497;28;20049;-45
2022/06/10 11:05:23;;;;;;;8.65;2.30;;;20.30;99.90;;;;;;5052637;28;20048;-47
2022/06/10 11:08:11;;;;;;;8.55;1.98;;;20.40;99.90;;;;;;5051566;28;20546;-47
2022/06/10 11:10:50;;;;;;;5.57;1.67;;;20.50;99.90;;;;;;5051017;28;20045;-45
2022/06/10 11:13:20;;;;;;;7.40;1.85;;;20.60;99.90;;;;;;5052346;28;20068;-47
2022/06/10 11:15:48;;;;;;;6.93;2.10;;;20.60;99.90;;;;;;5052338;28;20033;-45
2022/06/10 11:18:14;;;;;;;8.65;2.50;;;20.60;99.90;;;;;;5050850;28;20487;-47
2022/06/10 11:20:40;;;;;;;9.23;2.25;;;20.60;99.90;;;;;;5051899;28;20145;-46
2022/06/10 11:23:18;;;;;;;8.95;2.13;;;20.70;99.90;;;;;;5050808;28;20496;-45
2022/06/10 11:25:46;;;;;;;8.55;2.00;;;20.80;99.90;;;;;;5050812;28;20044;-46
2022/06/10 11:28:23;;;;;;;6.93;2.05;;;20.80;99.90;;;;;;5052516;28;20489;-46
2022/06/10 11:30:49;;;;;;;8.45;2.30;;;20.80;99.90;;;;;;5051936;28;20114;-46
2022/06/10 11:33:30;;;;;;;6.65;1.88;;;20.80;99.90;;;;;;5034014;28;20045;-47
2022/06/10 11:36:01;;;;;;;9.68;2.17;;;20.90;99.90;;;;;;5051876;28;20063;-45
2022/06/10 11:38:33;;;;;;;7.78;2.42;;;20.90;99.90;;;;;;5050501;28;20049;-48
2022/06/10 11:41:14;;;;;;;8.50;2.33;;;21.00;99.90;;;;;;5051599;28;20033;-48
2022/06/10 11:43:50;;;;;;;5.72;1.80;;;21.00;99.90;;;;;;5033833;28;20049;-45
2022/06/10 11:46:36;;;;;;;5.35;2.17;;;21.10;99.90;;;;;;5051880;28;20033;-45
2022/06/10 11:49:28;;;;;;;8.38;2.10;;;21.20;99.90;;;;;;5051468;28;20033;-48
2022/06/10 11:52:08;;;;;;;5.85;1.73;;;21.20;99.90;;;;;;5051595;28;20041;-46
2022/06/10 11:54:48;;;;;;;8.75;2.13;;;21.20;99.90;;;;;;5033672;28;20128;-47
2022/06/10 12:00:38;;;;;;;8.57;2.30;;;21.30;99.90;;;;;;5051450;28;20053;-46
2022/06/10 12:03:42;;;;;;;9.02;1.65;;;21.40;99.90;;;;;;5051418;28;20061;-46
2022/06/10 12:06:29;;;;;;;8.88;1.80;;;21.40;99.90;;;;;;5049911;28;20041;-46
2022/06/10 12:09:26;;;;;;;7.75;1.92;;;21.40;99.90;;;;;;5049975;28;20048;-46
2022/06/10 12:12:13;;;;;;;8.18;1.90;;;21.40;99.90;;;;;;5049135;28;20586;-46
2022/06/10 12:14:48;;;;;;;6.07;1.60;;;21.40;99.90;;;;;;5051172;28;20124;-46
2022/06/10 12:17:21;;;;;;;6.47;1.70;;;21.50;99.90;;;;;;5050031;28;20084;-46
2022/06/10 12:19:56;;;;;;;;;;;21.60;99.90;;;;;;5050558;28;20080;-46
2022/06/10 12:22:21;;;;;;;6.00;0.98;;;21.60;99.90;;;;;;5049711;28;19921;-45
2022/06/10 12:24:49;;;;;;;6.55;1.33;;;21.70;99.90;;;;;;5050826;28;20047;-47
2022/06/10 12:27:29;;;;;;;7.90;1.65;;;21.70;99.90;;;;;;5041900;28;20458;-47
2022/06/10 12:30:02;;;;;;;6.20;1.35;;;21.80;99.90;;;;;;5016967;28;20099;-43
2022/06/10 12:32:44;;;;;;;7.18;1.35;;;21.80;99.90;;;;;;5028302;28;20037;-43
2022/06/10 12:35:34;;;;;;;5.57;1.10;;;21.90;99.90;;;;;;5036587;28;20052;-44
2022/06/10 12:38:23;;;;;;;4.93;1.27;;;22.00;99.90;;;;;;5034864;28;20354;-45
2022/06/10 12:41:01;;;;;;;6.80;1.33;;;22.10;99.90;;;;;;5054926;28;20487;-44
2022/06/10 12:43:31;;;;;;;5.80;1.10;;;22.20;99.90;;;;;;5036758;28;20041;-43
2022/06/10 12:46:00;;;;;;;4.80;1.00;;;22.20;99.90;;;;;;5032975;28;20049;-43
2022/06/10 12:48:29;;;;;;;4.70;0.98;;;22.20;99.90;;;;;;5045717;28;20193;-44
2022/06/10 12:51:01;;;;;;;5.63;0.95;;;22.30;99.90;;;;;;5044918;28;20060;-45
2022/06/10 12:53:56;;;;;;;7.97;1.38;;;22.30;99.90;;;;;;5042339;28;20068;-45
2022/06/10 12:56:24;;;;;;;5.65;1.00;;;22.30;99.90;;;;;;5042136;28;20152;-44
2022/06/10 12:59:08;;;;;;;8.35;1.50;;;22.40;99.90;;;;;;5045235;28;20057;-44
2022/06/10 13:01:34;;;;;;;5.38;1.15;;;22.50;99.90;;;;;;5036851;28;20041;-45
2022/06/10 13:04:04;;;;;;;7.10;1.50;;;22.50;99.90;;;;;;5028983;28;20064;-44
2022/06/10 13:06:42;;;;;;;6.40;1.38;;;22.50;99.90;;;;;;5041952;28;20487;-44
2022/06/10 13:09:11;;;;;;;4.78;1.10;;;22.50;99.90;;;;;;5015611;28;20040;-43
2022/06/10 13:12:19;;;;;;;5.90;0.95;;;22.50;99.90;;;;;;5040452;28;20037;-45
2022/06/10 13:15:00;;;;;;;6.97;1.08;;;22.60;99.90;;;;;;4993855;28;20491;-44
2022/06/10 13:17:29;;;;;;;5.50;1.38;;;22.60;99.90;;;;;;5034549;28;20080;-43
2022/06/10 13:19:56;;;;;;;6.03;0.90;;;22.70;99.90;;;;;;5015382;28;20060;-46
2022/06/10 13:22:22;;;;;;;7.15;0.98;;;22.70;99.90;;;;;;5029874;28;20033;-49
2022/06/10 13:24:54;;;;;;;5.00;1.13;;;22.70;99.90;;;;;;5029856;28;20041;-49
2022/06/10 13:27:33;;;;;;;7.43;1.10;;;22.70;99.90;;;;;;5027653;28;20049;-47
2022/06/10 13:30:14;;;;;;;8.13;1.40;;;22.70;99.90;;;;;;5023450;28;20045;-50
2022/06/10 13:32:56;;;;;;;9.93;0.85;;;22.80;99.90;;;;;;5028291;28;20289;-48